createdAt,value
2017-06-03T00:01:35.033Z,18.50
2017-06-03T00:04:05.381Z,18.60
2017-06-03T00:06:34.522Z,18.50
2017-06-03T00:09:02.861Z,18.40
2017-06-03T00:11:31.169Z,18.50
2017-06-03T00:13:59.498Z,18.40
2017-06-03T00:16:27.811Z,18.40
2017-06-03T00:18:56.173Z,18.30
2017-06-03T00:21:25.244Z,18.30
2017-06-03T00:23:53.598Z,18.20
2017-06-03T00:26:21.940Z,18.30
2017-06-03T00:28:50.244Z,18.30
2017-06-03T00:31:18.597Z,18.20
2017-06-03T00:33:46.915Z,18.30
2017-06-03T00:36:15.233Z,18.30
2017-06-03T00:38:43.537Z,18.30
2017-06-03T00:41:11.890Z,18.20
2017-06-03T00:43:40.212Z,18.20
2017-06-03T00:46:08.516Z,18.20
2017-06-03T00:48:36.842Z,18.10
2017-06-03T00:51:05.158Z,18.10
2017-06-03T00:53:33.498Z,18.00
2017-06-03T00:56:01.821Z,18.00
2017-06-03T00:58:30.183Z,18.00
2017-06-03T01:00:58.514Z,18.00
2017-06-03T01:03:26.817Z,18.10
2017-06-03T01:05:55.164Z,18.00
2017-06-03T01:08:23.533Z,18.00
2017-06-03T01:10:51.871Z,18.00
2017-06-03T01:13:20.167Z,18.00
2017-06-03T01:15:49.271Z,18.00
2017-06-03T01:18:18.341Z,17.90
2017-06-03T01:20:46.687Z,17.90
2017-06-03T01:23:15.049Z,17.90
2017-06-03T01:25:43.358Z,17.90
2017-06-03T01:28:11.681Z,17.90
2017-06-03T01:30:39.995Z,17.80
2017-06-03T01:33:08.337Z,17.80
2017-06-03T01:35:36.647Z,17.80
2017-06-03T01:38:04.993Z,17.80
2017-06-03T01:40:33.323Z,17.80
2017-06-03T01:43:01.700Z,17.70
2017-06-03T01:45:30.053Z,17.80
2017-06-03T01:47:58.385Z,17.80
2017-06-03T01:50:27.471Z,17.80
2017-06-03T01:52:55.778Z,17.80
2017-06-03T01:55:24.113Z,17.80
2017-06-03T01:57:52.416Z,17.80
2017-06-03T02:00:21.494Z,17.80
2017-06-03T02:02:50.613Z,17.80
2017-06-03T02:05:19.022Z,17.70
2017-06-03T02:07:47.329Z,17.80
2017-06-03T02:10:15.654Z,17.70
2017-06-03T02:12:43.976Z,17.70
2017-06-03T02:15:12.296Z,17.70
2017-06-03T02:17:40.752Z,17.70
2017-06-03T02:20:09.062Z,17.70
2017-06-03T02:22:37.376Z,17.70
2017-06-03T02:25:05.709Z,17.70
2017-06-03T02:27:34.041Z,17.70
2017-06-03T02:30:02.360Z,17.70
2017-06-03T02:32:30.713Z,17.70
2017-06-03T02:34:59.041Z,17.70
2017-06-03T02:37:27.353Z,17.70
2017-06-03T02:39:55.685Z,17.70
2017-06-03T02:42:24.012Z,17.60
2017-06-03T02:44:52.335Z,17.60
2017-06-03T02:47:20.645Z,17.60
2017-06-03T02:49:48.985Z,17.60
2017-06-03T02:52:17.301Z,17.50
2017-06-03T02:54:45.661Z,17.50
2017-06-03T02:57:14.045Z,17.50
2017-06-03T02:59:42.384Z,17.40
2017-06-03T03:02:10.785Z,17.40
2017-06-03T03:04:39.108Z,17.40
2017-06-03T03:07:07.418Z,17.30
2017-06-03T03:09:35.743Z,17.30
2017-06-03T03:12:04.037Z,17.30
2017-06-03T03:14:32.369Z,17.20
2017-06-03T03:17:00.671Z,17.10
2017-06-03T03:19:28.996Z,17.10
2017-06-03T03:21:57.352Z,17.10
2017-06-03T03:24:25.673Z,17.00
2017-06-03T03:26:53.988Z,17.00
2017-06-03T03:29:22.301Z,17.00
2017-06-03T03:31:50.635Z,17.00
2017-06-03T03:34:18.949Z,17.10
2017-06-03T03:36:47.300Z,17.20
2017-06-03T03:39:15.586Z,17.20
2017-06-03T03:41:43.926Z,17.20
2017-06-03T03:44:12.264Z,17.30
2017-06-03T03:46:40.571Z,17.30
2017-06-03T03:49:08.897Z,17.30
2017-06-03T03:51:37.200Z,17.40
2017-06-03T03:54:05.537Z,17.40
2017-06-03T03:56:33.848Z,17.40
2017-06-03T03:59:02.157Z,17.30
2017-06-03T04:01:30.484Z,17.30
2017-06-03T04:03:58.800Z,17.40
2017-06-03T04:06:27.130Z,17.40
2017-06-03T04:08:55.449Z,17.40
2017-06-03T04:11:23.789Z,17.30
2017-06-03T04:13:52.871Z,17.30
2017-06-03T04:16:21.186Z,17.20
2017-06-03T04:18:49.628Z,17.30
2017-06-03T04:21:17.938Z,17.30
2017-06-03T04:23:46.280Z,17.30
2017-06-03T04:26:14.613Z,17.40
2017-06-03T04:28:42.938Z,17.40
2017-06-03T04:31:11.250Z,17.30
2017-06-03T04:33:39.601Z,17.30
2017-06-03T04:36:08.721Z,17.30
2017-06-03T04:38:37.029Z,17.30
2017-06-03T04:41:05.366Z,17.30
2017-06-03T04:43:33.677Z,17.30
2017-06-03T04:46:02.007Z,17.30
2017-06-03T04:48:31.101Z,17.40
2017-06-03T04:51:00.242Z,17.40
2017-06-03T04:53:28.577Z,17.40
2017-06-03T04:55:57.643Z,17.40
2017-06-03T04:58:25.952Z,17.40
2017-06-03T05:00:54.281Z,17.50
2017-06-03T05:03:22.613Z,17.40
2017-06-03T05:05:50.923Z,17.50
2017-06-03T05:08:19.243Z,17.50
2017-06-03T05:10:48.332Z,17.60
2017-06-03T05:13:17.444Z,17.70
2017-06-03T05:15:45.753Z,17.60
2017-06-03T05:18:14.072Z,17.70
2017-06-03T05:20:42.380Z,17.80
2017-06-03T05:23:10.747Z,17.80
2017-06-03T05:25:39.832Z,17.80
2017-06-03T05:28:08.923Z,17.80
2017-06-03T05:30:37.240Z,17.80
2017-06-03T05:33:05.561Z,17.90
2017-06-03T05:35:33.888Z,17.90
2017-06-03T05:38:02.200Z,18.00
2017-06-03T05:40:30.636Z,18.00
2017-06-03T05:42:58.942Z,18.10
2017-06-03T05:45:27.272Z,18.10
2017-06-03T05:47:56.357Z,18.20
2017-06-03T05:50:24.672Z,18.10
2017-06-03T05:52:53.008Z,18.10
2017-06-03T05:55:21.428Z,18.20
2017-06-03T05:57:49.750Z,18.20
2017-06-03T06:00:18.081Z,18.30
2017-06-03T06:02:46.410Z,18.30
2017-06-03T06:05:14.773Z,18.40
2017-06-03T06:07:43.224Z,18.50
2017-06-03T06:10:11.535Z,18.50
2017-06-03T06:12:39.952Z,18.60
2017-06-03T06:15:08.381Z,18.70
2017-06-03T06:17:37.601Z,18.70
2017-06-03T06:20:06.749Z,18.90
2017-06-03T06:22:35.114Z,18.80
2017-06-03T06:25:04.017Z,18.90
2017-06-03T06:27:32.373Z,19.10
2017-06-03T06:30:00.708Z,19.00
2017-06-03T06:32:29.108Z,18.90
2017-06-03T06:34:58.193Z,19.00
2017-06-03T06:37:27.274Z,19.00
2017-06-03T06:39:56.541Z,19.20
2017-06-03T06:42:25.361Z,19.10
2017-06-03T06:44:53.735Z,19.20
2017-06-03T06:47:22.072Z,19.40
2017-06-03T06:49:50.445Z,19.40
2017-06-03T06:52:18.789Z,19.50
2017-06-03T06:54:47.158Z,19.60
2017-06-03T06:57:15.510Z,19.60
2017-06-03T06:59:44.532Z,19.50
2017-06-03T07:02:13.672Z,19.40
2017-06-03T07:04:41.989Z,19.30
2017-06-03T07:07:10.304Z,19.40
2017-06-03T07:09:38.620Z,19.60
2017-06-03T07:12:07.765Z,19.90
2017-06-03T07:14:36.945Z,20.30
2017-06-03T07:17:05.250Z,20.20
2017-06-03T07:19:33.560Z,20.50
2017-06-03T07:22:02.116Z,20.70
2017-06-03T07:24:30.463Z,21.00
2017-06-03T07:26:58.820Z,20.90
2017-06-03T07:29:27.148Z,20.90
2017-06-03T07:31:55.534Z,21.00
2017-06-03T07:34:23.956Z,21.20
2017-06-03T07:36:52.345Z,21.40
2017-06-03T07:39:20.706Z,21.60
2017-06-03T07:41:50.194Z,21.80
2017-06-03T07:44:18.734Z,21.70
2017-06-03T07:46:47.875Z,21.50
2017-06-03T07:49:16.310Z,21.40
2017-06-03T07:51:44.672Z,21.40
2017-06-03T07:54:13.019Z,21.40
2017-06-03T07:56:41.386Z,21.20
2017-06-03T07:59:09.829Z,21.20
2017-06-03T08:01:39.367Z,21.10
2017-06-03T08:04:07.720Z,21.10
2017-06-03T08:06:36.026Z,21.00
2017-06-03T08:09:04.372Z,21.10
2017-06-03T08:11:33.277Z,21.20
2017-06-03T08:14:01.729Z,21.10
2017-06-03T08:16:30.093Z,21.20
2017-06-03T08:19:00.178Z,21.10
2017-06-03T08:21:28.480Z,21.10
2017-06-03T08:23:56.840Z,21.20
2017-06-03T08:26:25.251Z,21.30
2017-06-03T08:28:53.575Z,21.30
2017-06-03T08:31:21.954Z,21.20
2017-06-03T08:33:50.306Z,21.50
2017-06-03T08:36:18.648Z,21.60
2017-06-03T08:38:47.014Z,21.60
2017-06-03T08:41:15.375Z,21.60
2017-06-03T08:43:43.710Z,21.80
2017-06-03T08:46:12.054Z,21.70
2017-06-03T08:48:40.441Z,21.70
2017-06-03T08:51:08.796Z,21.50
2017-06-03T08:53:37.116Z,21.40
2017-06-03T08:56:05.491Z,21.60
2017-06-03T08:58:33.813Z,21.60
2017-06-03T09:01:02.171Z,21.70
2017-06-03T09:03:30.549Z,21.90
2017-06-03T09:05:58.912Z,22.00
2017-06-03T09:08:27.340Z,22.30
2017-06-03T09:10:55.712Z,22.30
2017-06-03T09:13:24.053Z,22.30
2017-06-03T09:15:52.380Z,22.20
2017-06-03T09:18:20.702Z,21.80
2017-06-03T09:20:50.652Z,21.70
2017-06-03T09:23:18.979Z,21.70
2017-06-03T09:25:47.366Z,21.70
2017-06-03T09:28:15.748Z,21.70
2017-06-03T09:30:44.195Z,21.70
2017-06-03T09:33:12.552Z,21.70
2017-06-03T09:35:40.886Z,21.90
2017-06-03T09:38:09.202Z,22.40
2017-06-03T09:40:37.700Z,22.70
2017-06-03T09:43:06.945Z,23.30
2017-06-03T09:45:35.329Z,23.20
2017-06-03T09:48:03.690Z,23.40
2017-06-03T09:50:32.026Z,23.30
2017-06-03T09:53:00.431Z,23.00
2017-06-03T09:55:28.840Z,23.30
2017-06-03T09:57:57.242Z,23.60
2017-06-03T10:00:25.644Z,24.00
2017-06-03T10:02:54.208Z,24.50
2017-06-03T10:05:22.561Z,24.70
2017-06-03T10:07:50.963Z,24.70
2017-06-03T10:10:20.250Z,24.70
2017-06-03T10:12:48.590Z,24.60
2017-06-03T10:15:17.024Z,24.50
2017-06-03T10:17:45.378Z,23.70
2017-06-03T10:20:13.722Z,23.90
2017-06-03T10:22:42.117Z,24.60
2017-06-03T10:25:11.483Z,24.90
2017-06-03T10:27:40.588Z,25.20
2017-06-03T10:30:09.006Z,25.10
2017-06-03T10:32:37.412Z,25.50
2017-06-03T10:35:05.793Z,25.50
2017-06-03T10:37:34.462Z,25.20
2017-06-03T10:40:02.812Z,24.90
2017-06-03T10:42:31.145Z,25.20
2017-06-03T10:45:00.635Z,24.70
2017-06-03T10:47:29.005Z,24.70
2017-06-03T10:49:57.611Z,24.60
2017-06-03T10:52:26.799Z,24.90
2017-06-03T10:54:55.118Z,24.90
2017-06-03T10:57:23.551Z,25.50
2017-06-03T10:59:51.921Z,25.70
2017-06-03T11:02:21.209Z,25.60
2017-06-03T11:04:49.636Z,25.60
2017-06-03T11:07:18.213Z,25.60
2017-06-03T11:09:46.584Z,25.60
2017-06-03T11:12:14.965Z,26.00
2017-06-03T11:14:43.344Z,26.70
2017-06-03T11:17:12.457Z,27.30
2017-06-03T11:19:40.849Z,27.30
2017-06-03T11:22:09.214Z,27.50
2017-06-03T11:24:37.560Z,27.70
2017-06-03T11:27:06.721Z,27.60
2017-06-03T11:29:35.101Z,27.60
2017-06-03T11:32:04.406Z,27.20
2017-06-03T11:34:32.769Z,26.70
2017-06-03T11:37:01.133Z,26.90
2017-06-03T11:39:30.065Z,27.10
2017-06-03T11:41:58.401Z,26.50
2017-06-03T11:44:26.777Z,26.50
2017-06-03T11:46:55.166Z,26.90
2017-06-03T11:49:23.534Z,26.70
2017-06-03T11:51:51.927Z,27.00
2017-06-03T11:54:20.281Z,26.70
2017-06-03T11:56:48.634Z,26.60
2017-06-03T11:59:16.983Z,26.60
2017-06-03T12:01:46.141Z,26.50
2017-06-03T12:04:15.337Z,26.40
2017-06-03T12:06:43.729Z,26.20
2017-06-03T12:09:12.174Z,26.00
2017-06-03T12:11:40.526Z,26.20
2017-06-03T12:14:09.838Z,26.10
2017-06-03T12:16:38.187Z,26.00
2017-06-03T12:19:06.561Z,26.30
2017-06-03T12:21:34.986Z,26.30
2017-06-03T12:24:03.362Z,26.50
2017-06-03T12:26:31.809Z,26.30
2017-06-03T12:29:01.258Z,26.20
2017-06-03T12:31:29.603Z,26.20
2017-06-03T12:33:58.702Z,25.70
2017-06-03T12:36:27.069Z,25.60
2017-06-03T12:38:56.227Z,25.20
2017-06-03T12:41:24.577Z,25.20
2017-06-03T12:43:52.973Z,25.10
2017-06-03T12:46:21.362Z,24.90
2017-06-03T12:48:49.889Z,24.70
2017-06-03T12:51:18.250Z,24.60
2017-06-03T12:53:46.664Z,24.50
2017-06-03T12:56:15.032Z,24.30
2017-06-03T12:58:43.382Z,24.10
2017-06-03T13:01:11.785Z,23.80
2017-06-03T13:03:40.157Z,23.70
2017-06-03T13:06:08.603Z,23.60
2017-06-03T13:08:36.953Z,23.70
2017-06-03T13:11:05.292Z,23.90
2017-06-03T13:13:34.394Z,24.40
2017-06-03T13:16:02.742Z,24.40
2017-06-03T13:18:31.074Z,24.80
2017-06-03T13:20:59.399Z,25.50
2017-06-03T13:23:27.749Z,26.90
2017-06-03T13:25:56.091Z,27.00
2017-06-03T13:28:24.446Z,26.60
2017-06-03T13:30:52.766Z,26.60
2017-06-03T13:33:21.092Z,26.60
2017-06-03T13:35:49.437Z,26.20
2017-06-03T13:38:17.773Z,25.20
2017-06-03T13:40:46.097Z,24.90
2017-06-03T13:43:14.425Z,24.90
2017-06-03T13:45:42.769Z,25.10
2017-06-03T13:48:11.133Z,25.20
2017-06-03T13:50:39.451Z,25.20
2017-06-03T13:53:07.784Z,25.30
2017-06-03T13:55:36.113Z,25.30
2017-06-03T13:58:04.457Z,25.10
2017-06-03T14:00:32.797Z,25.00
2017-06-03T14:03:01.150Z,25.00
2017-06-03T14:05:29.479Z,25.10
2017-06-03T14:07:57.821Z,25.00
2017-06-03T14:10:26.132Z,25.20
2017-06-03T14:12:54.481Z,25.20
2017-06-03T14:15:22.812Z,25.30
2017-06-03T14:17:51.144Z,25.40
2017-06-03T14:20:19.548Z,25.50
2017-06-03T14:22:47.897Z,25.50
2017-06-03T14:25:16.249Z,25.80
2017-06-03T14:27:44.645Z,26.10
2017-06-03T14:30:13.055Z,26.30
2017-06-03T14:32:41.377Z,26.50
2017-06-03T14:35:09.744Z,26.90
2017-06-03T14:37:38.083Z,26.80
2017-06-03T14:40:06.400Z,26.90
2017-06-03T14:42:34.798Z,27.00
2017-06-03T14:45:03.120Z,27.10
2017-06-03T14:47:31.462Z,27.00
2017-06-03T14:49:59.811Z,26.80
2017-06-03T14:52:28.152Z,26.80
2017-06-03T14:54:56.486Z,26.80
2017-06-03T14:57:24.802Z,26.70
2017-06-03T14:59:53.145Z,26.20
2017-06-03T15:02:21.480Z,26.10
2017-06-03T15:04:49.816Z,26.20
2017-06-03T15:07:18.161Z,26.00
2017-06-03T15:09:46.472Z,26.10
2017-06-03T15:12:14.827Z,26.30
2017-06-03T15:14:43.141Z,26.30
2017-06-03T15:17:11.489Z,26.30
2017-06-03T15:19:39.815Z,26.30
2017-06-03T15:22:08.196Z,26.40
2017-06-03T15:24:36.551Z,26.00
2017-06-03T15:27:04.900Z,26.10
2017-06-03T15:29:33.226Z,26.00
2017-06-03T15:32:02.349Z,25.30
2017-06-03T15:34:30.677Z,25.30
2017-06-03T15:36:59.051Z,25.20
2017-06-03T15:39:27.380Z,25.10
2017-06-03T15:41:55.742Z,25.10
2017-06-03T15:44:24.077Z,25.20
2017-06-03T15:46:52.457Z,25.30
2017-06-03T15:49:20.773Z,25.50
2017-06-03T15:51:49.090Z,25.60
2017-06-03T15:54:17.433Z,25.70
2017-06-03T15:56:45.765Z,25.60
2017-06-03T15:59:14.158Z,25.50
2017-06-03T16:01:42.561Z,25.40
2017-06-03T16:04:10.907Z,25.40
2017-06-03T16:06:39.295Z,25.40
2017-06-03T16:09:07.658Z,25.40
2017-06-03T16:11:35.995Z,25.60
2017-06-03T16:14:04.360Z,25.90
2017-06-03T16:16:32.737Z,25.90
2017-06-03T16:19:01.114Z,25.80
2017-06-03T16:21:29.497Z,25.30
2017-06-03T16:23:57.883Z,25.40
2017-06-03T16:26:27.199Z,25.30
2017-06-03T16:28:55.578Z,25.30
2017-06-03T16:31:23.948Z,25.30
2017-06-03T16:33:52.337Z,25.30
2017-06-03T16:36:20.712Z,25.20
2017-06-03T16:38:50.139Z,25.20
2017-06-03T16:41:18.539Z,25.10
2017-06-03T16:43:47.713Z,24.90
2017-06-03T16:46:16.098Z,24.90
2017-06-03T16:48:44.397Z,24.90
2017-06-03T16:51:13.538Z,24.80
2017-06-03T16:53:41.878Z,24.80
2017-06-03T16:56:11.001Z,24.90
2017-06-03T16:58:39.360Z,25.20
2017-06-03T17:01:07.789Z,25.10
2017-06-03T17:03:36.125Z,25.20
2017-06-03T17:06:04.459Z,25.10
2017-06-03T17:08:32.888Z,25.00
2017-06-03T17:11:01.760Z,25.10
2017-06-03T17:13:30.577Z,25.00
2017-06-03T17:15:58.935Z,24.70
2017-06-03T17:18:27.265Z,24.40
2017-06-03T17:20:55.625Z,24.30
2017-06-03T17:23:23.996Z,24.30
2017-06-03T17:25:52.400Z,24.30
2017-06-03T17:28:20.786Z,24.30
2017-06-03T17:30:49.168Z,24.20
2017-06-03T17:33:17.545Z,24.20
2017-06-03T17:35:45.912Z,24.20
2017-06-03T17:38:14.316Z,24.00
2017-06-03T17:40:42.697Z,24.00
2017-06-03T17:43:11.065Z,23.90
2017-06-03T17:45:39.438Z,23.80
2017-06-03T17:48:08.695Z,23.70
2017-06-03T17:50:37.091Z,23.60
2017-06-03T17:53:05.469Z,23.70
2017-06-03T17:55:33.782Z,23.50
2017-06-03T17:58:02.086Z,23.40
2017-06-03T18:00:30.426Z,23.50
2017-06-03T18:02:58.743Z,23.50
2017-06-03T18:05:27.052Z,23.50
2017-06-03T18:07:55.389Z,23.40
2017-06-03T18:10:23.699Z,23.40
2017-06-03T18:12:52.033Z,23.40
2017-06-03T18:15:20.387Z,23.30
2017-06-03T18:17:48.707Z,23.30
2017-06-03T18:20:17.040Z,23.30
2017-06-03T18:22:46.210Z,23.00
2017-06-03T18:25:15.304Z,23.00
2017-06-03T18:27:43.659Z,22.90
2017-06-03T18:30:12.017Z,22.80
2017-06-03T18:32:40.333Z,22.70
2017-06-03T18:35:08.690Z,22.70
2017-06-03T18:37:37.019Z,22.60
2017-06-03T18:40:06.149Z,22.60
2017-06-03T18:42:34.478Z,22.50
2017-06-03T18:45:02.838Z,22.60
2017-06-03T18:47:31.218Z,22.40
2017-06-03T18:49:59.560Z,22.30
2017-06-03T18:52:27.923Z,22.20
2017-06-03T18:54:56.258Z,22.20
2017-06-03T18:57:24.611Z,22.10
2017-06-03T18:59:52.926Z,22.10
2017-06-03T19:02:22.051Z,22.00
2017-06-03T19:04:50.444Z,21.90
2017-06-03T19:07:18.801Z,21.80
2017-06-03T19:09:47.110Z,21.80
2017-06-03T19:12:15.468Z,21.70
2017-06-03T19:14:43.801Z,21.70
2017-06-03T19:17:12.108Z,21.70
2017-06-03T19:19:40.459Z,21.60
2017-06-03T19:22:08.765Z,21.60
2017-06-03T19:24:37.127Z,21.50
2017-06-03T19:27:06.250Z,21.40
2017-06-03T19:29:34.616Z,21.40
2017-06-03T19:32:02.946Z,21.40
2017-06-03T19:34:31.312Z,21.20
2017-06-03T19:36:59.750Z,21.20
2017-06-03T19:39:28.078Z,21.20
2017-06-03T19:41:56.552Z,21.10
2017-06-03T19:44:24.892Z,21.10
2017-06-03T19:46:53.229Z,21.00
2017-06-03T19:49:22.356Z,20.90
2017-06-03T19:51:50.678Z,20.80
2017-06-03T19:54:19.043Z,20.80
2017-06-03T19:56:47.372Z,20.80
2017-06-03T19:59:15.714Z,20.70
2017-06-03T20:01:44.072Z,20.60
2017-06-03T20:04:12.404Z,20.70
2017-06-03T20:06:41.522Z,20.50
2017-06-03T20:09:09.824Z,20.50
2017-06-03T20:11:38.219Z,20.50
2017-06-03T20:14:06.523Z,20.50
2017-06-03T20:16:35.621Z,20.40
2017-06-03T20:19:04.709Z,20.30
2017-06-03T20:21:33.053Z,20.30
2017-06-03T20:24:01.402Z,20.20
2017-06-03T20:26:29.718Z,20.20
2017-06-03T20:28:58.057Z,20.20
2017-06-03T20:31:26.371Z,20.10
2017-06-03T20:33:54.955Z,20.10
2017-06-03T20:36:23.282Z,20.10
2017-06-03T20:38:51.647Z,20.10
2017-06-03T20:41:19.987Z,20.00
2017-06-03T20:43:48.298Z,19.80
2017-06-03T20:46:17.456Z,19.70
2017-06-03T20:48:45.757Z,19.70
2017-06-03T20:51:14.857Z,19.60
2017-06-03T20:53:43.949Z,19.50
2017-06-03T20:56:13.053Z,19.40
2017-06-03T20:58:42.152Z,19.40
2017-06-03T21:01:10.481Z,19.30
2017-06-03T21:03:38.976Z,19.30
2017-06-03T21:06:07.347Z,19.30
2017-06-03T21:08:35.705Z,19.20
2017-06-03T21:11:04.652Z,19.20
2017-06-03T21:13:33.000Z,19.00
2017-06-03T21:16:01.337Z,18.90
2017-06-03T21:18:29.648Z,18.80
2017-06-03T21:20:57.993Z,18.80
2017-06-03T21:23:26.315Z,18.90
2017-06-03T21:25:54.649Z,18.80
2017-06-03T21:28:22.976Z,18.80
2017-06-03T21:30:52.105Z,18.70
2017-06-03T21:33:20.430Z,18.60
2017-06-03T21:35:48.744Z,18.60
2017-06-03T21:38:17.089Z,18.50
2017-06-03T21:40:45.415Z,18.50
2017-06-03T21:43:13.750Z,18.40
2017-06-03T21:45:42.088Z,18.30
2017-06-03T21:48:10.489Z,18.30
2017-06-03T21:50:38.813Z,18.40
2017-06-03T21:53:07.143Z,18.30
2017-06-03T21:55:35.498Z,18.30
2017-06-03T21:58:03.818Z,18.40
2017-06-03T22:00:33.045Z,18.30
2017-06-03T22:03:01.361Z,18.30
2017-06-03T22:05:29.778Z,18.30
2017-06-03T22:07:58.120Z,18.30
2017-06-03T22:10:26.424Z,18.30
2017-06-03T22:12:54.758Z,18.30
2017-06-03T22:15:23.097Z,18.20
2017-06-03T22:17:51.452Z,18.20
2017-06-03T22:20:20.573Z,18.10
2017-06-03T22:22:48.892Z,18.10
2017-06-03T22:25:17.222Z,18.20
2017-06-03T22:27:45.543Z,18.10
2017-06-03T22:30:13.892Z,18.10
2017-06-03T22:32:42.216Z,18.10
2017-06-03T22:35:10.559Z,18.00
2017-06-03T22:37:38.882Z,18.00
2017-06-03T22:40:08.821Z,17.90
2017-06-03T22:42:37.177Z,17.90
2017-06-03T22:45:06.255Z,18.00
2017-06-03T22:47:34.581Z,17.90
2017-06-03T22:50:02.910Z,17.90
2017-06-03T22:52:31.213Z,17.90
2017-06-03T22:55:00.293Z,17.80
2017-06-03T22:57:28.625Z,17.70
2017-06-03T22:59:56.942Z,17.80
2017-06-03T23:02:25.295Z,17.70
2017-06-03T23:04:53.696Z,17.60
2017-06-03T23:07:22.024Z,17.50
2017-06-03T23:09:50.348Z,17.50
2017-06-03T23:12:18.665Z,17.50
2017-06-03T23:14:46.997Z,17.50
2017-06-03T23:17:15.322Z,17.50
2017-06-03T23:19:43.661Z,17.50
2017-06-03T23:22:11.968Z,17.40
2017-06-03T23:24:40.285Z,17.40
2017-06-03T23:27:08.623Z,17.40
2017-06-03T23:29:36.933Z,17.30
2017-06-03T23:32:05.277Z,17.30
2017-06-03T23:34:34.356Z,17.30
2017-06-03T23:37:03.440Z,17.30
2017-06-03T23:39:32.006Z,17.30
2017-06-03T23:42:00.328Z,17.20
2017-06-03T23:44:28.640Z,17.20
2017-06-03T23:46:56.974Z,17.20
2017-06-03T23:49:26.042Z,17.10
2017-06-03T23:51:54.389Z,17.00
2017-06-03T23:54:22.688Z,17.10
2017-06-03T23:56:50.969Z,17.10
2017-06-03T23:59:19.304Z,17.10
